createdAt,value
2023-04-18T00:01:17.982Z,10.77
2023-04-18T00:03:45.962Z,11.60
2023-04-18T00:06:14.512Z,11.20
2023-04-18T00:08:42.173Z,9.18
2023-04-18T00:11:09.668Z,9.65
2023-04-18T00:13:38.642Z,8.60
2023-04-18T00:16:08.079Z,8.13
2023-04-18T00:18:37.179Z,7.07
2023-04-18T00:21:04.956Z,6.97
2023-04-18T00:23:34.402Z,6.65
2023-04-18T00:26:02.111Z,5.97
2023-04-18T00:28:29.757Z,6.38
2023-04-18T00:30:57.437Z,6.60
2023-04-18T00:33:25.082Z,6.00
2023-04-18T00:35:54.702Z,6.20
2023-04-18T00:38:22.279Z,5.77
2023-04-18T00:40:49.884Z,6.70
2023-04-18T00:43:17.710Z,6.03
2023-04-18T00:45:45.306Z,5.38
2023-04-18T00:48:12.968Z,5.03
2023-04-18T00:50:41.762Z,4.03
2023-04-18T00:53:11.327Z,4.50
2023-04-18T00:55:39.849Z,4.18
2023-04-18T00:58:07.536Z,3.80
2023-04-18T01:00:35.578Z,4.38
2023-04-18T01:03:03.604Z,3.73
2023-04-18T01:05:31.348Z,4.13
2023-04-18T01:08:01.238Z,3.50
2023-04-18T01:10:30.062Z,3.65
2023-04-18T01:13:15.164Z,3.75
2023-04-18T01:15:44.313Z,3.80
2023-04-18T01:18:13.237Z,3.70
2023-04-18T01:20:44.039Z,4.45
2023-04-18T01:23:11.693Z,3.85
2023-04-18T01:25:39.443Z,4.05
2023-04-18T01:28:07.549Z,4.20
2023-04-18T01:30:35.283Z,3.38
2023-04-18T01:33:05.051Z,3.38
2023-04-18T01:35:34.070Z,3.65
2023-04-18T01:38:01.899Z,3.92
2023-04-18T01:40:30.272Z,3.67
2023-04-18T01:42:57.847Z,3.40
2023-04-18T01:45:25.516Z,3.70
2023-04-18T01:47:53.130Z,3.42
2023-04-18T01:50:20.887Z,2.92
2023-04-18T01:52:48.598Z,3.43
2023-04-18T01:55:16.923Z,3.13
2023-04-18T01:57:44.617Z,3.25
2023-04-18T02:00:12.775Z,2.47
2023-04-18T02:02:43.624Z,3.42
2023-04-18T02:05:11.477Z,3.20
2023-04-18T02:07:41.197Z,3.40
2023-04-18T02:10:11.101Z,3.13
2023-04-18T02:12:39.052Z,3.13
2023-04-18T02:15:07.216Z,3.33
2023-04-18T02:17:37.415Z,3.27
2023-04-18T02:20:05.580Z,3.65
2023-04-18T02:22:33.187Z,3.15
2023-04-18T02:25:02.555Z,3.42
2023-04-18T02:27:31.842Z,2.63
2023-04-18T02:29:59.492Z,3.10
2023-04-18T02:32:27.086Z,3.40
2023-04-18T02:34:54.605Z,3.10
2023-04-18T02:37:22.129Z,3.00
2023-04-18T02:39:51.081Z,3.30
2023-04-18T02:42:18.670Z,2.90
2023-04-18T02:44:46.219Z,2.88
2023-04-18T02:47:13.801Z,2.85
2023-04-18T02:49:43.573Z,3.20
2023-04-18T02:52:11.241Z,2.95
2023-04-18T02:54:38.809Z,3.23
2023-04-18T02:57:11.174Z,3.40
2023-04-18T02:59:58.980Z,3.55
2023-04-18T03:02:49.713Z,3.05
2023-04-18T03:05:35.986Z,3.20
2023-04-18T03:08:05.981Z,3.00
2023-04-18T03:10:34.911Z,3.00
2023-04-18T03:13:02.761Z,4.00
2023-04-18T03:15:33.318Z,3.28
2023-04-18T03:18:01.517Z,3.38
2023-04-18T03:20:33.103Z,3.90
2023-04-18T03:23:00.862Z,3.45
2023-04-18T03:25:30.656Z,3.75
2023-04-18T03:27:58.937Z,3.50
2023-04-18T03:30:27.875Z,3.55
2023-04-18T03:32:58.798Z,3.67
2023-04-18T03:35:26.565Z,3.60
2023-04-18T03:37:54.216Z,3.85
2023-04-18T03:40:27.092Z,3.60
2023-04-18T03:43:02.349Z,4.30
2023-04-18T03:45:30.308Z,4.23
2023-04-18T03:47:57.934Z,4.53
2023-04-18T03:50:26.170Z,4.80
2023-04-18T03:52:55.732Z,4.22
2023-04-18T03:55:23.327Z,4.43
2023-04-18T03:57:51.619Z,3.97
2023-04-18T04:00:28.076Z,4.47
2023-04-18T04:03:02.085Z,4.85
2023-04-18T04:05:30.145Z,5.30
2023-04-18T04:07:57.908Z,4.78
2023-04-18T04:10:25.668Z,4.90
2023-04-18T04:12:54.214Z,5.47
2023-04-18T04:15:22.130Z,5.25
2023-04-18T04:18:02.166Z,5.53
2023-04-18T04:20:30.717Z,5.65
2023-04-18T04:23:10.693Z,6.10
2023-04-18T04:25:40.144Z,5.70
2023-04-18T04:28:16.113Z,5.65
2023-04-18T04:30:53.347Z,5.30
2023-04-18T04:33:28.469Z,6.22
2023-04-18T04:36:01.360Z,6.70
2023-04-18T04:38:31.281Z,6.22
2023-04-18T04:40:59.854Z,6.30
2023-04-18T04:43:28.870Z,6.68
2023-04-18T04:45:57.834Z,6.57
2023-04-18T04:48:25.553Z,6.80
2023-04-18T04:50:56.774Z,6.20
2023-04-18T04:53:26.718Z,5.88
2023-04-18T04:55:54.703Z,5.95
2023-04-18T04:58:23.365Z,5.38
2023-04-18T05:00:59.784Z,5.73
2023-04-18T05:03:27.922Z,6.22
2023-04-18T05:05:55.688Z,6.68
2023-04-18T05:08:23.290Z,6.85
2023-04-18T05:10:51.190Z,6.43
2023-04-18T05:13:18.857Z,5.60
2023-04-18T05:15:46.455Z,6.75
2023-04-18T05:18:14.486Z,6.97
2023-04-18T05:20:42.039Z,7.75
2023-04-18T05:23:09.606Z,7.97
2023-04-18T05:25:37.244Z,7.47
2023-04-18T05:28:04.898Z,7.38
2023-04-18T05:30:32.448Z,7.90
2023-04-18T05:33:00.117Z,8.40
2023-04-18T05:35:27.827Z,8.90
2023-04-18T05:37:55.494Z,8.90
2023-04-18T05:40:23.235Z,9.40
2023-04-18T05:42:50.819Z,10.70
2023-04-18T05:45:18.556Z,9.82
2023-04-18T05:47:46.244Z,11.15
2023-04-18T05:50:13.803Z,10.10
2023-04-18T05:52:41.329Z,10.00
2023-04-18T05:55:09.334Z,9.18
2023-04-18T05:57:37.252Z,8.63
2023-04-18T06:00:11.473Z,9.27
2023-04-18T06:02:42.139Z,9.23
2023-04-18T06:05:10.267Z,7.90
2023-04-18T06:07:38.221Z,8.52
2023-04-18T06:10:09.289Z,9.23
2023-04-18T06:12:37.305Z,8.18
2023-04-18T06:15:05.835Z,9.13
2023-04-18T06:17:34.976Z,9.20
2023-04-18T06:20:04.449Z,9.75
2023-04-18T06:22:34.062Z,9.57
2023-04-18T06:25:01.784Z,9.68
2023-04-18T06:27:31.672Z,9.43
2023-04-18T06:29:59.779Z,9.65
2023-04-18T06:32:27.516Z,10.55
2023-04-18T06:34:55.486Z,8.75
2023-04-18T06:37:23.594Z,9.10
2023-04-18T06:39:51.341Z,8.77
2023-04-18T06:42:21.593Z,8.65
2023-04-18T06:44:50.513Z,7.85
2023-04-18T06:47:18.527Z,7.50
2023-04-18T06:49:46.110Z,7.93
2023-04-18T06:52:13.839Z,7.20
2023-04-18T06:54:41.425Z,7.40
2023-04-18T06:57:09.414Z,8.32
2023-04-18T06:59:37.565Z,7.60
2023-04-18T07:02:05.195Z,7.28
2023-04-18T07:04:32.843Z,8.73
2023-04-18T07:07:01.846Z,8.45
2023-04-18T07:09:29.670Z,7.95
2023-04-18T07:11:57.276Z,9.38
2023-04-18T07:14:25.302Z,8.27
2023-04-18T07:16:52.903Z,6.90
2023-04-18T07:19:20.603Z,8.75
2023-04-18T07:21:48.390Z,8.90
2023-04-18T07:24:16.373Z,8.60
2023-04-18T07:26:44.121Z,9.45
2023-04-18T07:29:11.792Z,9.50
2023-04-18T07:31:39.450Z,9.02
2023-04-18T07:34:07.112Z,9.52
2023-04-18T07:36:34.699Z,9.10
2023-04-18T07:39:02.257Z,9.60
2023-04-18T07:41:29.859Z,9.87
2023-04-18T07:43:57.465Z,9.93
2023-04-18T07:46:25.089Z,9.75
2023-04-18T07:48:52.641Z,9.80
2023-04-18T07:51:20.583Z,10.10
2023-04-18T07:53:48.226Z,9.67
2023-04-18T07:56:15.902Z,10.40
2023-04-18T07:58:43.515Z,10.27
2023-04-18T08:01:14.194Z,11.00
2023-04-18T08:03:42.073Z,11.95
2023-04-18T08:06:10.045Z,10.67
2023-04-18T08:08:37.835Z,11.30
2023-04-18T08:11:05.488Z,11.40
2023-04-18T08:13:33.147Z,9.65
2023-04-18T08:16:02.359Z,12.00
2023-04-18T08:18:30.248Z,11.40
2023-04-18T08:20:57.789Z,10.48
2023-04-18T08:23:25.504Z,10.57
2023-04-18T08:25:53.064Z,10.68
2023-04-18T08:28:21.011Z,11.65
2023-04-18T08:30:57.276Z,10.70
2023-04-18T08:33:26.505Z,10.63
2023-04-18T08:35:54.423Z,10.27
2023-04-18T08:38:22.867Z,10.20
2023-04-18T08:40:50.540Z,10.30
2023-04-18T08:43:18.251Z,9.90
2023-04-18T08:45:47.388Z,9.50
2023-04-18T08:48:16.463Z,10.57
2023-04-18T08:50:44.987Z,8.75
2023-04-18T08:53:12.701Z,8.63
2023-04-18T08:55:40.686Z,7.57
2023-04-18T08:58:08.259Z,7.93
2023-04-18T09:00:35.817Z,8.13
2023-04-18T09:03:04.041Z,7.90
2023-04-18T09:05:31.799Z,6.90
2023-04-18T09:07:59.431Z,7.70
2023-04-18T09:10:29.019Z,8.00
2023-04-18T09:12:58.037Z,9.73
2023-04-18T09:15:27.477Z,10.50
2023-04-18T09:17:58.037Z,9.73
2023-04-18T09:20:41.359Z,8.30
2023-04-18T09:23:11.583Z,7.30
2023-04-18T09:25:44.740Z,7.13
2023-04-18T09:28:29.321Z,8.30
2023-04-18T09:31:09.668Z,8.77
2023-04-18T09:33:38.652Z,7.50
2023-04-18T09:36:21.024Z,7.47
2023-04-18T09:38:49.901Z,6.90
2023-04-18T09:41:20.756Z,7.57
2023-04-18T09:43:49.889Z,8.32
2023-04-18T09:46:22.669Z,8.40
2023-04-18T09:48:50.570Z,8.80
2023-04-18T09:51:18.467Z,8.73
2023-04-18T09:53:47.654Z,8.65
2023-04-18T09:56:23.903Z,8.68
2023-04-18T09:58:57.126Z,9.07
2023-04-18T10:01:29.620Z,9.63
2023-04-18T10:03:57.880Z,10.13
2023-04-18T10:06:27.999Z,9.77
2023-04-18T10:08:56.311Z,10.60
2023-04-18T10:11:24.404Z,10.00
2023-04-18T10:13:57.540Z,9.82
2023-04-18T10:16:26.372Z,10.68
2023-04-18T10:18:54.020Z,10.70
2023-04-18T10:21:21.813Z,12.88
2023-04-18T10:23:50.410Z,11.37
2023-04-18T10:26:18.109Z,11.73
2023-04-18T10:28:57.264Z,10.55
2023-04-18T10:31:29.193Z,10.80
2023-04-18T10:34:17.696Z,9.90
2023-04-18T10:37:03.832Z,10.47
2023-04-18T10:39:46.700Z,9.13
2023-04-18T10:42:14.590Z,8.90
2023-04-18T10:44:42.095Z,9.35
2023-04-18T10:47:20.730Z,10.95
2023-04-18T10:49:55.067Z,10.40
2023-04-18T10:52:22.762Z,9.98
2023-04-18T10:55:05.721Z,10.10
2023-04-18T10:57:43.713Z,8.80
2023-04-18T11:00:14.069Z,10.10
2023-04-18T11:02:50.253Z,8.80
2023-04-18T11:05:26.867Z,10.25
2023-04-18T11:07:54.893Z,8.65
2023-04-18T11:10:25.610Z,9.15
2023-04-18T11:12:54.881Z,8.20
2023-04-18T11:15:24.001Z,9.13
2023-04-18T11:18:05.128Z,8.07
2023-04-18T11:20:46.073Z,9.32
2023-04-18T11:23:23.116Z,8.95
2023-04-18T11:25:56.541Z,9.15
2023-04-18T11:28:27.646Z,8.93
2023-04-18T11:31:00.274Z,8.98
2023-04-18T11:33:29.471Z,8.95
2023-04-18T11:36:42.267Z,8.45
2023-04-18T11:52:35.588Z,6.63
2023-04-18T11:55:27.629Z,7.07
2023-04-18T11:58:15.992Z,7.18
2023-04-18T12:00:43.641Z,6.87
2023-04-18T12:03:19.021Z,6.40
2023-04-18T12:05:47.101Z,6.18
2023-04-18T12:08:20.751Z,6.40
2023-04-18T12:23:45.201Z,5.45
2023-04-18T12:26:21.220Z,6.55
2023-04-18T12:28:52.916Z,6.13
2023-04-18T12:34:26.692Z,6.82
2023-04-18T12:36:54.351Z,6.40
2023-04-18T12:39:21.943Z,6.35
2023-04-18T12:41:50.003Z,7.30
2023-04-18T12:44:17.765Z,7.10
2023-04-18T12:46:45.423Z,6.78
2023-04-18T12:49:31.056Z,6.40
2023-04-18T12:51:58.852Z,6.85
2023-04-18T12:54:26.538Z,7.00
2023-04-18T12:56:54.227Z,6.87
2023-04-18T12:59:21.809Z,7.35
2023-04-18T13:01:49.442Z,7.78
2023-04-18T13:04:17.252Z,7.80
2023-04-18T13:06:45.344Z,7.20
2023-04-18T13:09:13.092Z,7.73
2023-04-18T13:11:40.850Z,7.63
2023-04-18T13:14:08.572Z,6.95
2023-04-18T13:16:36.306Z,6.80
2023-04-18T13:19:03.889Z,6.75
2023-04-18T13:21:31.486Z,7.33
2023-04-18T13:23:59.170Z,7.68
2023-04-18T13:26:26.974Z,7.65
2023-04-18T13:28:54.678Z,7.30
2023-04-18T13:31:22.266Z,7.03
2023-04-18T13:33:49.834Z,7.17
2023-04-18T13:36:18.045Z,6.68
2023-04-18T13:38:46.319Z,6.63
2023-04-18T13:41:13.945Z,6.78
2023-04-18T13:43:41.557Z,6.88
2023-04-18T13:46:09.268Z,7.27
2023-04-18T13:48:36.973Z,7.57
2023-04-18T13:51:04.783Z,7.07
2023-04-18T13:53:32.640Z,7.28
2023-04-18T13:56:01.827Z,6.60
2023-04-18T13:58:29.720Z,7.07
2023-04-18T14:00:57.334Z,6.50
2023-04-18T14:03:25.172Z,7.05
2023-04-18T14:05:52.928Z,6.13
2023-04-18T14:08:21.068Z,5.53
2023-04-18T14:10:48.636Z,4.87
2023-04-18T14:13:16.908Z,5.53
2023-04-18T14:15:44.516Z,5.70
2023-04-18T14:18:12.163Z,5.30
2023-04-18T14:20:39.866Z,5.50
2023-04-18T14:23:07.401Z,5.50
2023-04-18T14:25:35.166Z,4.53
2023-04-18T14:28:09.698Z,4.63
2023-04-18T14:30:39.225Z,4.28
2023-04-18T14:33:09.205Z,4.57
2023-04-18T14:35:37.240Z,4.40
2023-04-18T14:38:04.829Z,3.80
2023-04-18T14:40:33.099Z,4.00
2023-04-18T14:43:00.819Z,3.90
2023-04-18T14:45:28.467Z,3.80
2023-04-18T14:47:56.154Z,4.10
2023-04-18T14:50:23.983Z,3.60
2023-04-18T14:52:51.578Z,3.80
2023-04-18T14:55:20.226Z,2.90
2023-04-18T14:57:48.138Z,3.35
2023-04-18T15:00:16.039Z,2.87
2023-04-18T15:02:44.038Z,2.97
2023-04-18T15:05:12.519Z,3.15
2023-04-18T15:07:41.249Z,3.10
2023-04-18T15:10:10.458Z,3.05
2023-04-18T15:12:38.152Z,3.00
2023-04-18T15:15:06.694Z,3.10
2023-04-18T15:17:34.195Z,2.90
2023-04-18T15:20:01.987Z,2.88
2023-04-18T15:22:29.785Z,2.53
2023-04-18T15:24:57.903Z,2.60
2023-04-18T15:27:25.611Z,2.80
2023-04-18T15:29:53.567Z,2.95
2023-04-18T15:32:22.126Z,2.72
2023-04-18T15:34:49.779Z,2.40
2023-04-18T15:37:17.391Z,2.40
2023-04-18T15:39:45.027Z,2.90
2023-04-18T15:42:12.712Z,2.35
2023-04-18T15:44:40.447Z,1.67
2023-04-18T15:47:08.133Z,2.50
2023-04-18T15:49:35.971Z,2.10
2023-04-18T15:52:03.733Z,1.90
2023-04-18T15:54:31.281Z,2.20
2023-04-18T15:56:58.901Z,1.92
2023-04-18T15:59:26.488Z,2.33
2023-04-18T16:01:54.192Z,2.00
2023-04-18T16:04:21.907Z,1.92
2023-04-18T16:06:49.608Z,1.75
2023-04-18T16:09:17.113Z,1.73
2023-04-18T16:11:44.693Z,1.98
2023-04-18T16:14:12.730Z,7.03
2023-04-18T16:16:40.479Z,2.17
2023-04-18T16:19:08.089Z,2.45
2023-04-18T16:21:35.711Z,2.30
2023-04-18T16:24:03.292Z,2.13
2023-04-18T16:26:30.869Z,1.90
2023-04-18T16:28:58.623Z,2.22
2023-04-18T16:31:26.354Z,2.15
2023-04-18T16:33:54.105Z,2.03
2023-04-18T16:36:21.815Z,2.20
2023-04-18T16:38:49.411Z,2.23
2023-04-18T16:41:16.944Z,2.05
2023-04-18T16:43:44.567Z,2.03
2023-04-18T16:46:13.835Z,2.30
2023-04-18T16:48:41.820Z,2.10
2023-04-18T16:51:09.369Z,2.30
2023-04-18T16:53:36.984Z,2.50
2023-04-18T16:56:04.853Z,2.60
2023-04-18T16:58:32.844Z,1.42
2023-04-18T17:01:02.444Z,2.70
2023-04-18T17:03:30.260Z,2.70
2023-04-18T17:05:58.016Z,2.60
2023-04-18T17:08:27.167Z,2.85
2023-04-18T17:10:55.469Z,3.03
2023-04-18T17:13:26.913Z,2.85
2023-04-18T17:15:54.762Z,3.47
2023-04-18T17:18:22.440Z,2.75
2023-04-18T17:20:50.063Z,3.17
2023-04-18T17:23:19.392Z,2.92
2023-04-18T17:25:47.714Z,3.08
2023-04-18T17:28:15.398Z,3.10
2023-04-18T17:30:43.047Z,2.90
2023-04-18T17:33:11.156Z,2.83
2023-04-18T17:35:41.747Z,3.13
2023-04-18T17:38:10.676Z,3.40
2023-04-18T17:40:39.480Z,3.07
2023-04-18T17:43:07.088Z,3.33
2023-04-18T17:45:34.689Z,3.38
2023-04-18T17:48:03.136Z,3.40
2023-04-18T17:50:31.026Z,3.20
2023-04-18T17:52:58.655Z,3.20
2023-04-18T17:55:26.695Z,3.22
2023-04-18T17:57:54.252Z,3.22
2023-04-18T18:00:21.944Z,3.47
2023-04-18T18:02:49.728Z,3.58
2023-04-18T18:05:17.412Z,3.50
2023-04-18T18:07:47.714Z,4.10
2023-04-18T18:10:22.414Z,3.60
2023-04-18T18:12:50.169Z,3.30
2023-04-18T18:15:18.280Z,3.40
2023-04-18T18:17:48.858Z,3.40
2023-04-18T18:20:17.262Z,3.30
2023-04-18T18:22:44.799Z,3.80
2023-04-18T18:25:13.267Z,3.00
2023-04-18T18:27:40.987Z,3.15
2023-04-18T18:30:09.005Z,3.07
2023-04-18T18:32:36.614Z,3.42
2023-04-18T18:35:06.073Z,3.45
2023-04-18T18:37:33.791Z,3.20
2023-04-18T18:40:04.992Z,3.50
2023-04-18T18:42:32.604Z,3.80
2023-04-18T18:45:01.695Z,3.28
2023-04-18T18:47:30.663Z,3.35
2023-04-18T18:49:58.312Z,3.78
2023-04-18T18:52:28.141Z,3.75
2023-04-18T18:54:55.839Z,3.70
2023-04-18T18:57:23.469Z,4.20
2023-04-18T18:59:51.056Z,4.25
2023-04-18T19:02:19.201Z,4.25
2023-04-18T19:04:47.677Z,4.38
2023-04-18T19:07:16.048Z,3.97
2023-04-18T19:09:43.686Z,3.72
2023-04-18T19:12:11.258Z,3.60
2023-04-18T19:14:40.232Z,3.30
2023-04-18T19:17:09.028Z,3.03
2023-04-18T19:19:36.550Z,3.70
2023-04-18T19:22:04.277Z,3.20
2023-04-18T19:24:32.125Z,3.50
2023-04-18T19:26:59.849Z,2.92
2023-04-18T19:29:27.358Z,3.10
2023-04-18T19:31:55.488Z,2.87
2023-04-18T19:34:23.143Z,3.20
2023-04-18T19:36:50.743Z,3.40
2023-04-18T19:39:18.393Z,3.28
2023-04-18T19:41:46.169Z,3.47
2023-04-18T19:44:13.687Z,3.00
2023-04-18T19:46:41.320Z,3.28
2023-04-18T19:49:08.865Z,3.15
2023-04-18T19:51:36.523Z,3.80
2023-04-18T19:54:04.750Z,3.47
2023-04-18T19:56:32.440Z,3.60
2023-04-18T19:59:00.118Z,3.60
2023-04-18T20:01:27.938Z,3.70
2023-04-18T20:03:58.669Z,3.30
2023-04-18T20:06:27.205Z,3.78
2023-04-18T20:08:55.113Z,3.90
2023-04-18T20:11:22.769Z,4.30
2023-04-18T20:13:52.311Z,4.32
2023-04-18T20:16:21.347Z,3.50
2023-04-18T20:18:51.899Z,3.95
2023-04-18T20:21:20.698Z,3.90
2023-04-18T20:23:48.282Z,3.58
2023-04-18T20:26:15.865Z,3.63
2023-04-18T20:28:43.493Z,3.80
2023-04-18T20:31:12.815Z,4.15
2023-04-18T20:33:40.411Z,3.93
2023-04-18T20:36:08.793Z,3.83
2023-04-18T20:38:36.943Z,4.55
2023-04-18T20:41:06.248Z,3.72
2023-04-18T20:43:37.349Z,4.20
2023-04-18T20:46:04.997Z,4.30
2023-04-18T20:48:32.788Z,4.50
2023-04-18T20:51:00.468Z,4.68
2023-04-18T20:53:29.112Z,4.60
2023-04-18T20:55:56.715Z,4.05
2023-04-18T20:58:24.358Z,4.17
2023-04-18T21:00:52.202Z,4.95
2023-04-18T21:03:19.884Z,4.95
2023-04-18T21:05:47.597Z,4.95
2023-04-18T21:08:15.160Z,4.93
2023-04-18T21:10:42.776Z,4.93
2023-04-18T21:13:12.735Z,4.65
2023-04-18T21:15:42.325Z,4.82
2023-04-18T21:18:10.081Z,4.78
2023-04-18T21:20:37.839Z,4.95
2023-04-18T21:23:05.448Z,5.03
2023-04-18T21:25:33.080Z,4.47
2023-04-18T21:28:00.993Z,5.15
2023-04-18T21:30:28.609Z,5.18
2023-04-18T21:32:56.239Z,5.57
2023-04-18T21:35:24.870Z,5.40
2023-04-18T21:37:52.815Z,5.35
2023-04-18T21:40:20.435Z,5.72
2023-04-18T21:42:51.585Z,5.72
2023-04-18T21:45:19.231Z,4.93
2023-04-18T21:47:47.125Z,5.17
2023-04-18T21:50:14.775Z,5.63
2023-04-18T21:52:42.431Z,5.45
2023-04-18T21:55:10.216Z,4.85
2023-04-18T21:57:37.786Z,5.88
2023-04-18T22:00:08.419Z,5.67
2023-04-18T22:02:37.741Z,5.40
2023-04-18T22:05:05.813Z,5.82
2023-04-18T22:07:40.797Z,5.70
2023-04-18T22:10:14.120Z,6.15
2023-04-18T22:12:42.538Z,5.90
2023-04-18T22:15:10.586Z,5.70
2023-04-18T22:17:38.347Z,6.10
2023-04-18T22:20:08.061Z,6.13
2023-04-18T22:22:35.669Z,6.13
2023-04-18T22:25:03.691Z,6.43
2023-04-18T22:27:31.311Z,6.40
2023-04-18T22:29:58.872Z,6.63
2023-04-18T22:32:26.509Z,6.15
2023-04-18T22:34:54.093Z,6.57
2023-04-18T22:37:21.762Z,6.83
2023-04-18T22:39:49.331Z,7.20
2023-04-18T22:42:16.855Z,6.15
2023-04-18T22:44:44.446Z,6.70
2023-04-18T22:47:12.436Z,6.88
2023-04-18T22:49:40.467Z,7.57
2023-04-18T22:52:08.416Z,8.13
2023-04-18T22:54:40.374Z,7.70
2023-04-18T22:57:09.437Z,6.82
2023-04-18T22:59:37.244Z,7.85
2023-04-18T23:02:04.876Z,7.50
2023-04-18T23:04:32.851Z,7.07
2023-04-18T23:07:00.477Z,7.88
2023-04-18T23:09:31.240Z,7.57
2023-04-18T23:11:58.895Z,7.00
2023-04-18T23:14:26.653Z,7.00
2023-04-18T23:16:54.328Z,6.53
2023-04-18T23:19:22.191Z,7.75
2023-04-18T23:21:49.957Z,6.53
2023-04-18T23:24:17.572Z,7.47
2023-04-18T23:26:45.524Z,6.67
2023-04-18T23:29:13.067Z,7.18
2023-04-18T23:31:41.088Z,6.05
2023-04-18T23:34:10.721Z,7.00
2023-04-18T23:36:40.452Z,6.32
2023-04-18T23:39:08.718Z,6.83
2023-04-18T23:41:36.303Z,7.07
2023-04-18T23:44:03.946Z,6.93
2023-04-18T23:46:31.607Z,6.18
2023-04-18T23:48:59.264Z,6.55
2023-04-18T23:51:28.113Z,5.90
2023-04-18T23:53:55.660Z,6.20
2023-04-18T23:56:23.289Z,3.65
2023-04-18T23:58:50.941Z,5.88
